Time;durP1;ratioP1;P1;durP2;ratioP2;P2;SDS_P1;SDS_P2;PMS_P1;PMS_P2;Temp;Humidity;BMP_temperature;BMP_pressure;BME280_temperature;BME280_humidity;BME280_pressure;Samples;Min_cycle;Max_cycle;Signal;HPM_P1;HPM_P2
2024/03/31 00:02:22;;;;;;;;;;;;;;;;;;5017609;28;3391;-65
2024/03/31 00:04:48;;;;;;;;;;;;;;;;;;5021693;28;4941;-66
2024/03/31 00:07:13;;;;;;;;;;;;;;;;;;5018136;28;4566;-66
2024/03/31 00:09:39;;;;;;;;;;;;;;;;;;5023415;28;5095;-68
2024/03/31 00:12:04;;;;;;;;;;;;;;;;;;5022023;28;4758;-65
2024/03/31 00:14:32;;;;;;;;;;;;;;;;;;5016951;28;3205;-65
2024/03/31 00:16:57;;;;;;;;;;;;;;;;;;5018556;28;4913;-65
2024/03/31 00:19:23;;;;;;;;;;;;;;;;;;5020788;28;5002;-65
2024/03/31 00:21:49;;;;;;;;;;;;;;;;;;5022877;28;5046;-65
2024/03/31 00:24:15;;;;;;;;;;;;;;;;;;5019042;28;4584;-65
2024/03/31 00:26:40;;;;;;;;;;;;;;;;;;5024010;28;4582;-66
2024/03/31 00:29:06;;;;;;;;;;;;;;;;;;5018974;28;3442;-65
2024/03/31 00:31:31;;;;;;;;;;;;;;;;;;5020519;28;4501;-65
2024/03/31 00:33:56;;;;;;;;;;;;;;;;;;5014219;28;5065;-65
2024/03/31 00:36:22;;;;;;;;;;;;;;;;;;5016538;28;5078;-65
2024/03/31 00:38:47;;;;;;;;;;;;;;;;;;5014887;28;5277;-66
2024/03/31 00:41:12;;;;;;;;;;;;;;;;;;5020375;28;3416;-65
2024/03/31 00:43:38;;;;;;;;;;;;;;;;;;5016352;28;5600;-66
2024/03/31 00:46:03;;;;;;;;;;;;;;;;;;5020927;28;4966;-65
2024/03/31 00:48:28;;;;;;;;;;;;;;;;;;5020580;28;5184;-65
2024/03/31 00:50:54;;;;;;;;;;;;;;;;;;5018397;28;5119;-65
2024/03/31 00:53:19;;;;;;;;;;;;;;;;;;5014648;28;3432;-64
2024/03/31 00:55:44;;;;;;;;;;;;;;;;;;5019949;28;5062;-65
2024/03/31 00:58:10;;;;;;;;;;;;;;;;;;5020744;28;4462;-65
2024/03/31 01:00:35;;;;;;;;;;;;;;;;;;5021242;28;4547;-66
2024/03/31 01:03:00;;;;;;;;;;;;;;;;;;5025242;28;4640;-65
2024/03/31 01:05:26;;;;;;;;;;;;;;;;;;5024262;28;3559;-65
2024/03/31 01:07:51;;;;;;;;;;;;;;;;;;5021675;28;4926;-65
2024/03/31 01:10:17;;;;;;;;;;;;;;;;;;5016165;28;4549;-65
2024/03/31 01:12:43;;;;;;;;;;;;;;;;;;5021910;28;4618;-66
2024/03/31 01:15:09;;;;;;;;;;;;;;;;;;5019830;28;5328;-66
2024/03/31 01:17:34;;;;;;;;;;;;;;;;;;5023625;28;3430;-66
2024/03/31 01:19:59;;;;;;;;;;;;;;;;;;5025072;28;4480;-66
2024/03/31 01:22:26;;;;;;;;;;;;;;;;;;5019859;28;4522;-66
2024/03/31 01:24:51;;;;;;;;;;;;;;;;;;5024519;28;4516;-65
2024/03/31 01:27:17;;;;;;;;;;;;;;;;;;5017738;28;5098;-66
2024/03/31 01:29:42;;;;;;;;;;;;;;;;;;5018005;28;5039;-65
2024/03/31 01:32:07;;;;;;;;;;;;;;;;;;5021259;28;3582;-65
2024/03/31 01:34:33;;;;;;;;;;;;;;;;;;5023206;28;4597;-65
2024/03/31 01:36:58;;;;;;;;;;;;;;;;;;5020195;28;4606;-65
2024/03/31 01:39:24;;;;;;;;;;;;;;;;;;5023534;28;4610;-65
2024/03/31 01:41:49;;;;;;;;;;;;;;;;;;5020223;28;4544;-65
2024/03/31 01:44:14;;;;;;;;;;;;;;;;;;5019511;28;3232;-66
2024/03/31 01:46:40;;;;;;;;;;;;;;;;;;5026468;28;4486;-66
2024/03/31 01:49:05;;;;;;;;;;;;;;;;;;5022541;28;5478;-65
2024/03/31 01:51:31;;;;;;;;;;;;;;;;;;5022984;28;5027;-65
2024/03/31 01:53:56;;;;;;;;;;;;;;;;;;5022026;28;5085;-65
2024/03/31 01:56:21;;;;;;;;;;;;;;;;;;5016490;28;3473;-65
2024/03/31 01:58:47;;;;;;;;;;;;;;;;;;5022117;28;5108;-65
2024/03/31 02:01:12;;;;;;;;;;;;;;;;;;5018055;28;5067;-65
2024/03/31 02:03:39;;;;;;;;;;;;;;;;;;5021495;28;5270;-65
2024/03/31 02:06:10;;;;;;;;;;;;;;;;;;5027916;28;4902;-65
2024/03/31 02:08:35;;;;;;;;;;;;;;;;;;5025193;28;3439;-65
2024/03/31 02:11:01;;;;;;;;;;;;;;;;;;5022081;28;4441;-65
2024/03/31 02:13:26;;;;;;;;;;;;;;;;;;5024944;28;4932;-66
2024/03/31 02:15:51;;;;;;;;;;;;;;;;;;5024624;28;4551;-65
2024/03/31 02:18:17;;;;;;;;;;;;;;;;;;5022982;28;5011;-65
2024/03/31 02:20:43;;;;;;;;;;;;;;;;;;5022052;28;5273;-66
2024/03/31 02:23:09;;;;;;;;;;;;;;;;;;5024947;28;3413;-65
2024/03/31 02:25:34;;;;;;;;;;;;;;;;;;5023076;28;5009;-65
2024/03/31 02:27:59;;;;;;;;;;;;;;;;;;5028279;28;4985;-65
2024/03/31 02:30:25;;;;;;;;;;;;;;;;;;5026149;28;5124;-65
2024/03/31 02:32:50;;;;;;;;;;;;;;;;;;5020668;28;5025;-65
2024/03/31 02:35:15;;;;;;;;;;;;;;;;;;5029236;28;1213;-65
2024/03/31 02:37:41;;;;;;;;;;;;;;;;;;5017133;28;4563;-65
2024/03/31 02:40:06;;;;;;;;;;;;;;;;;;5021489;28;5063;-65
2024/03/31 02:42:32;;;;;;;;;;;;;;;;;;5024581;28;4554;-65
2024/03/31 02:44:57;;;;;;;;;;;;;;;;;;5026465;28;4529;-64
2024/03/31 02:47:22;;;;;;;;;;;;;;;;;;5021617;28;3529;-65
2024/03/31 02:49:48;;;;;;;;;;;;;;;;;;5024526;28;5069;-64
2024/03/31 02:52:13;;;;;;;;;;;;;;;;;;5018839;28;5106;-65
2024/03/31 02:54:38;;;;;;;;;;;;;;;;;;5026949;28;5034;-65
2024/03/31 02:57:04;;;;;;;;;;;;;;;;;;5024198;28;4527;-65
2024/03/31 02:59:29;;;;;;;;;;;;;;;;;;5024662;28;3293;-65
2024/03/31 03:01:55;;;;;;;;;;;;;;;;;;5016086;28;4556;-65
2024/03/31 03:04:20;;;;;;;;;;;;;;;;;;5017959;28;4807;-65
2024/03/31 03:06:46;;;;;;;;;;;;;;;;;;5020233;28;5042;-65
2024/03/31 03:09:11;;;;;;;;;;;;;;;;;;5018195;28;5125;-66
2024/03/31 03:11:36;;;;;;;;;;;;;;;;;;5025037;28;3424;-65
2024/03/31 03:14:02;;;;;;;;;;;;;;;;;;5020240;28;5021;-65
2024/03/31 03:16:27;;;;;;;;;;;;;;;;;;5019376;28;5100;-65
2024/03/31 03:18:52;;;;;;;;;;;;;;;;;;5020635;28;4542;-66
2024/03/31 03:21:18;;;;;;;;;;;;;;;;;;5021936;28;5102;-66
2024/03/31 03:23:43;;;;;;;;;;;;;;;;;;5014180;28;5130;-65
2024/03/31 03:26:08;;;;;;;;;;;;;;;;;;5022740;28;3522;-66
2024/03/31 03:28:34;;;;;;;;;;;;;;;;;;5023604;28;4531;-66
2024/03/31 03:31:02;;;;;;;;;;;;;;;;;;5017988;28;4649;-66
2024/03/31 03:33:28;;;;;;;;;;;;;;;;;;5013642;28;5330;-65
2024/03/31 03:35:53;;;;;;;;;;;;;;;;;;5014730;28;5130;-66
2024/03/31 03:38:18;;;;;;;;;;;;;;;;;;5018210;28;3509;-66
2024/03/31 03:40:44;;;;;;;;;;;;;;;;;;5016599;28;5058;-66
2024/03/31 03:43:09;;;;;;;;;;;;;;;;;;5011575;28;5347;-66
2024/03/31 03:45:34;;;;;;;;;;;;;;;;;;5018452;28;4537;-65
2024/03/31 03:48:00;;;;;;;;;;;;;;;;;;5018676;28;5102;-65
2024/03/31 03:50:25;;;;;;;;;;;;;;;;;;5018871;28;3479;-66
2024/03/31 03:52:52;;;;;;;;;;;;;;;;;;5019865;28;4637;-66
2024/03/31 03:55:17;;;;;;;;;;;;;;;;;;5016106;28;4628;-65
2024/03/31 03:57:43;;;;;;;;;;;;;;;;;;5020763;28;4524;-66
2024/03/31 04:00:09;;;;;;;;;;;;;;;;;;5013190;28;4557;-66
2024/03/31 04:02:34;;;;;;;;;;;;;;;;;;5016239;28;3657;-65
2024/03/31 04:04:59;;;;;;;;;;;;;;;;;;5018148;28;5053;-64
2024/03/31 04:07:25;;;;;;;;;;;;;;;;;;5014258;28;5209;-64
2024/03/31 04:09:50;;;;;;;;;;;;;;;;;;5022541;28;5185;-65
2024/03/31 04:12:15;;;;;;;;;;;;;;;;;;5017120;28;4541;-64
2024/03/31 04:14:41;;;;;;;;;;;;;;;;;;5013637;28;4698;-65
2024/03/31 04:17:06;;;;;;;;;;;;;;;;;;5024836;28;3605;-64
2024/03/31 04:19:32;;;;;;;;;;;;;;;;;;5017823;28;5341;-64
2024/03/31 04:21:57;;;;;;;;;;;;;;;;;;5016885;28;5208;-64
2024/03/31 04:24:22;;;;;;;;;;;;;;;;;;5012902;28;4929;-65
2024/03/31 04:26:48;;;;;;;;;;;;;;;;;;5019607;28;5392;-65
2024/03/31 04:29:13;;;;;;;;;;;;;;;;;;5019450;28;3738;-65
2024/03/31 04:31:52;;;;;;;;;;;;;;;;;;5017512;28;5056;-64
2024/03/31 04:34:17;;;;;;;;;;;;;;;;;;5017356;28;4802;-65
2024/03/31 04:36:44;;;;;;;;;;;;;;;;;;5017332;28;4841;-64
2024/03/31 04:39:09;;;;;;;;;;;;;;;;;;5021515;28;5139;-65
2024/03/31 04:41:35;;;;;;;;;;;;;;;;;;5022860;28;3605;-65
2024/03/31 04:44:00;;;;;;;;;;;;;;;;;;5024982;28;4507;-65
2024/03/31 04:46:27;;;;;;;;;;;;;;;;;;5023137;28;4509;-65
2024/03/31 04:48:52;;;;;;;;;;;;;;;;;;5024286;28;4928;-65
2024/03/31 04:51:18;;;;;;;;;;;;;;;;;;5019238;28;5096;-65
2024/03/31 04:53:43;;;;;;;;;;;;;;;;;;5024966;28;4630;-65
2024/03/31 04:56:09;;;;;;;;;;;;;;;;;;5020859;28;3474;-65
2024/03/31 04:58:34;;;;;;;;;;;;;;;;;;5021742;28;4731;-64
2024/03/31 05:00:59;;;;;;;;;;;;;;;;;;5022965;28;5089;-65
2024/03/31 05:03:25;;;;;;;;;;;;;;;;;;5021793;28;5059;-64
2024/03/31 05:05:51;;;;;;;;;;;;;;;;;;5017580;28;5135;-65
2024/03/31 05:08:16;;;;;;;;;;;;;;;;;;5024741;28;3486;-64
2024/03/31 05:10:51;;;;;;;;;;;;;;;;;;5024545;28;5059;-64
2024/03/31 05:13:17;;;;;;;;;;;;;;;;;;5023364;28;5242;-65
2024/03/31 05:15:42;;;;;;;;;;;;;;;;;;5023336;28;5105;-64
2024/03/31 05:18:07;;;;;;;;;;;;;;;;;;5019616;28;5103;-65
2024/03/31 05:20:33;;;;;;;;;;;;;;;;;;5009726;28;1914;-65
2024/03/31 05:22:58;;;;;;;;;;;;;;;;;;5024740;28;5101;-65
2024/03/31 05:25:23;;;;;;;;;;;;;;;;;;5019847;28;4521;-65
2024/03/31 05:27:49;;;;;;;;;;;;;;;;;;5029080;28;5047;-64
2024/03/31 05:30:14;;;;;;;;;;;;;;;;;;5025157;28;5197;-64
2024/03/31 05:32:39;;;;;;;;;;;;;;;;;;5023554;28;5582;-64
2024/03/31 05:35:05;;;;;;;;;;;;;;;;;;5027353;28;3338;-64
2024/03/31 05:37:30;;;;;;;;;;;;;;;;;;5023181;28;5102;-65
2024/03/31 05:39:55;;;;;;;;;;;;;;;;;;5016977;28;4617;-65
2024/03/31 05:42:21;;;;;;;;;;;;;;;;;;5017329;28;4565;-64
2024/03/31 05:44:46;;;;;;;;;;;;;;;;;;5016938;28;4914;-64
2024/03/31 05:47:12;;;;;;;;;;;;;;;;;;5022509;28;3693;-65
2024/03/31 05:49:37;;;;;;;;;;;;;;;;;;5014623;28;5094;-65
2024/03/31 05:52:02;;;;;;;;;;;;;;;;;;5017599;28;5059;-65
2024/03/31 05:54:28;;;;;;;;;;;;;;;;;;5023133;28;5101;-65
2024/03/31 05:56:53;;;;;;;;;;;;;;;;;;5020220;28;4952;-65
2024/03/31 05:59:18;;;;;;;;;;;;;;;;;;5024925;28;3327;-64
2024/03/31 06:01:44;;;;;;;;;;;;;;;;;;5023637;28;4756;-64
2024/03/31 06:04:09;;;;;;;;;;;;;;;;;;5027891;28;5070;-64
2024/03/31 06:06:35;;;;;;;;;;;;;;;;;;5017863;28;5043;-64
2024/03/31 06:09:00;;;;;;;;;;;;;;;;;;5019213;28;4982;-64
2024/03/31 06:11:25;;;;;;;;;;;;;;;;;;5022545;28;3583;-64
2024/03/31 06:13:51;;;;;;;;;;;;;;;;;;5020151;28;4616;-65
2024/03/31 06:16:16;;;;;;;;;;;;;;;;;;5020115;28;5196;-65
2024/03/31 06:18:42;;;;;;;;;;;;;;;;;;5020211;28;4858;-65
2024/03/31 06:21:07;;;;;;;;;;;;;;;;;;5018936;28;5207;-66
2024/03/31 06:23:35;;;;;;;;;;;;;;;;;;5016363;28;3622;-68
2024/03/31 06:26:00;;;;;;;;;;;;;;;;;;5020014;28;4569;-66
2024/03/31 06:28:25;;;;;;;;;;;;;;;;;;5020211;28;4688;-66
2024/03/31 06:30:51;;;;;;;;;;;;;;;;;;5024341;28;5155;-66
2024/03/31 06:33:16;;;;;;;;;;;;;;;;;;5023840;28;5172;-65
2024/03/31 06:35:41;;;;;;;;;;;;;;;;;;5018570;28;4801;-64
2024/03/31 06:38:07;;;;;;;;;;;;;;;;;;5024338;28;3318;-64
2024/03/31 06:40:33;;;;;;;;;;;;;;;;;;5022439;28;5121;-63
2024/03/31 06:42:58;;;;;;;;;;;;;;;;;;5028247;28;5024;-66
2024/03/31 06:45:24;;;;;;;;;;;;;;;;;;5025196;28;4513;-63
2024/03/31 06:47:49;;;;;;;;;;;;;;;;;;5026071;28;5060;-63
2024/03/31 06:50:15;;;;;;;;;;;;;;;;;;5023171;28;3642;-65
2024/03/31 06:52:40;;;;;;;;;;;;;;;;;;5021639;28;5051;-69
2024/03/31 06:55:06;;;;;;;;;;;;;;;;;;5016740;28;4565;-62
2024/03/31 06:57:31;;;;;;;;;;;;;;;;;;5020106;28;5112;-64
2024/03/31 06:59:57;;;;;;;;;;;;;;;;;;5030019;28;4980;-63
2024/03/31 07:02:22;;;;;;;;;;;;;;;;;;5012134;28;3424;-62
2024/03/31 07:04:47;;;;;;;;;;;;;;;;;;5021715;28;4748;-62
2024/03/31 07:07:13;;;;;;;;;;;;;;;;;;5023564;28;4964;-64
2024/03/31 07:09:38;;;;;;;;;;;;;;;;;;5021500;28;4544;-63
2024/03/31 07:12:04;;;;;;;;;;;;;;;;;;5023333;28;5195;-65
2024/03/31 07:14:29;;;;;;;;;;;;;;;;;;5024800;28;3358;-63
2024/03/31 07:16:55;;;;;;;;;;;;;;;;;;5027165;28;5056;-62
2024/03/31 07:19:20;;;;;;;;;;;;;;;;;;5014095;28;5089;-64
2024/03/31 07:21:45;;;;;;;;;;;;;;;;;;5023411;28;5132;-65
2024/03/31 07:24:11;;;;;;;;;;;;;;;;;;5010074;28;4736;-67
2024/03/31 07:26:36;;;;;;;;;;;;;;;;;;5016752;28;3727;-60
2024/03/31 07:29:01;;;;;;;;;;;;;;;;;;5020965;28;5022;-60
2024/03/31 07:31:27;;;;;;;;;;;;;;;;;;5019132;28;5599;-59
2024/03/31 07:33:52;;;;;;;;;;;;;;;;;;5021084;28;5091;-59
2024/03/31 07:36:18;;;;;;;;;;;;;;;;;;5024298;28;4604;-60
2024/03/31 07:38:43;;;;;;;;;;;;;;;;;;5016249;28;4640;-60
2024/03/31 07:41:08;;;;;;;;;;;;;;;;;;5018914;28;2523;-60
2024/03/31 07:43:34;;;;;;;;;;;;;;;;;;5023065;28;4996;-59
2024/03/31 07:45:59;;;;;;;;;;;;;;;;;;5018842;28;5087;-60
2024/03/31 07:48:24;;;;;;;;;;;;;;;;;;5023686;28;5115;-60
2024/03/31 07:50:50;;;;;;;;;;;;;;;;;;5019336;28;5178;-59
2024/03/31 07:53:15;;;;;;;;;;;;;;;;;;5018798;28;3586;-60
2024/03/31 07:55:40;;;;;;;;;;;;;;;;;;5016506;28;4747;-59
2024/03/31 07:58:06;;;;;;;;;;;;;;;;;;5018796;28;5101;-59
2024/03/31 08:00:31;;;;;;;;;;;;;;;;;;5024022;28;5132;-59
2024/03/31 08:02:57;;;;;;;;;;;;;;;;;;5016413;28;5048;-61
2024/03/31 08:05:22;;;;;;;;;;;;;;;;;;5016293;28;3767;-63
2024/03/31 08:07:47;;;;;;;;;;;;;;;;;;5023088;28;5036;-63
2024/03/31 08:10:13;;;;;;;;;;;;;;;;;;5027331;28;4615;-64
2024/03/31 08:12:38;;;;;;;;;;;;;;;;;;5028729;28;4576;-66
2024/03/31 08:15:04;;;;;;;;;;;;;;;;;;5021126;28;4822;-64
2024/03/31 08:17:29;;;;;;;;;;;;;;;;;;5028702;28;2579;-63
2024/03/31 08:19:54;;;;;;;;;;;;;;;;;;5022973;28;4639;-63
2024/03/31 08:22:20;;;;;;;;;;;;;;;;;;5023696;28;5232;-59
2024/03/31 08:24:46;;;;;;;;;;;;;;;;;;5025410;28;4755;-62
2024/03/31 08:27:12;;;;;;;;;;;;;;;;;;5029562;28;4812;-66
2024/03/31 08:29:37;;;;;;;;;;;;;;;;;;5028432;28;1108;-66
2024/03/31 08:32:03;;;;;;;;;;;;;;;;;;5016082;28;4596;-64
2024/03/31 08:34:29;;;;;;;;;;;;;;;;;;5022394;28;5124;-67
2024/03/31 08:36:54;;;;;;;;;;;;;;;;;;5029450;28;4545;-64
2024/03/31 08:39:20;;;;;;;;;;;;;;;;;;5023159;28;4597;-68
2024/03/31 08:41:51;;;;;;;;;;;;;;;;;;5026161;28;5139;-63
2024/03/31 08:44:17;;;;;;;;;;;;;;;;;;5025008;28;3602;-62
2024/03/31 08:46:42;;;;;;;;;;;;;;;;;;5025459;28;5030;-62
2024/03/31 08:49:08;;;;;;;;;;;;;;;;;;5026150;28;4930;-63
2024/03/31 08:51:33;;;;;;;;;;;;;;;;;;5025318;28;4787;-63
2024/03/31 08:53:58;;;;;;;;;;;;;;;;;;5030063;28;5611;-68
2024/03/31 08:56:24;;;;;;;;;;;;;;;;;;5024282;28;3226;-64
2024/03/31 08:58:49;;;;;;;;;;;;;;;;;;5025825;28;5042;-67
2024/03/31 09:01:14;;;;;;;;;;;;;;;;;;5021927;28;5134;-60
2024/03/31 09:03:40;;;;;;;;;;;;;;;;;;5013359;28;4531;-70
2024/03/31 09:06:06;;;;;;;;;;;;;;;;;;5018679;28;5138;-67
2024/03/31 09:08:31;;;;;;;;;;;;;;;;;;5025867;28;3530;-66
2024/03/31 09:10:56;;;;;;;;;;;;;;;;;;5012664;28;4914;-65
2024/03/31 09:13:22;;;;;;;;;;;;;;;;;;5022268;28;4517;-62
2024/03/31 09:15:47;;;;;;;;;;;;;;;;;;5025428;28;5094;-62
2024/03/31 09:18:12;;;;;;;;;;;;;;;;;;5025616;28;5105;-62
2024/03/31 09:20:38;;;;;;;;;;;;;;;;;;5025697;28;3450;-61
2024/03/31 09:23:03;;;;;;;;;;;;;;;;;;5018410;28;4955;-62
2024/03/31 09:25:28;;;;;;;;;;;;;;;;;;5025073;28;5563;-74
2024/03/31 09:27:54;;;;;;;;;;;;;;;;;;5017478;28;4543;-66
2024/03/31 09:30:22;;;;;;;;;;;;;;;;;;5018611;28;5117;-61
2024/03/31 09:32:48;;;;;;;;;;;;;;;;;;5032200;28;5147;-64
2024/03/31 09:35:13;;;;;;;;;;;;;;;;;;5027657;28;1329;-61
2024/03/31 09:37:39;;;;;;;;;;;;;;;;;;5018420;28;4930;-60
2024/03/31 09:40:05;;;;;;;;;;;;;;;;;;5015713;28;5468;-63
2024/03/31 09:42:30;;;;;;;;;;;;;;;;;;5027562;28;5209;-60
2024/03/31 09:44:56;;;;;;;;;;;;;;;;;;5021627;28;4770;-63
2024/03/31 09:47:24;;;;;;;;;;;;;;;;;;5029132;28;3867;-60
2024/03/31 09:49:53;;;;;;;;;;;;;;;;;;5021446;28;5046;-61
2024/03/31 09:52:19;;;;;;;;;;;;;;;;;;5036656;28;5096;-60
2024/03/31 09:54:47;;;;;;;;;;;;;;;;;;5025913;28;4914;-62
2024/03/31 09:57:12;;;;;;;;;;;;;;;;;;5016528;28;5167;-62
2024/03/31 09:59:41;;;;;;;;;;;;;;;;;;5025674;28;3466;-62
2024/03/31 10:02:09;;;;;;;;;;;;;;;;;;5013345;28;5097;-63
2024/03/31 10:04:34;;;;;;;;;;;;;;;;;;5030332;28;5152;-67
2024/03/31 10:07:00;;;;;;;;;;;;;;;;;;5024354;28;4640;-66
2024/03/31 10:09:26;;;;;;;;;;;;;;;;;;5022825;28;5053;-65
2024/03/31 10:11:52;;;;;;;;;;;;;;;;;;5020999;28;5040;-64
2024/03/31 10:14:17;;;;;;;;;;;;;;;;;;5028280;28;3409;-63
2024/03/31 10:16:43;;;;;;;;;;;;;;;;;;5019071;28;4579;-60
2024/03/31 10:19:08;;;;;;;;;;;;;;;;;;5019780;28;4581;-63
2024/03/31 10:21:33;;;;;;;;;;;;;;;;;;5020060;28;4600;-64
2024/03/31 10:23:59;;;;;;;;;;;;;;;;;;5021188;28;5068;-64
2024/03/31 10:26:24;;;;;;;;;;;;;;;;;;5019433;28;1951;-67
2024/03/31 10:28:50;;;;;;;;;;;;;;;;;;5023151;28;5034;-62
2024/03/31 10:31:15;;;;;;;;;;;;;;;;;;5019881;28;5085;-64
2024/03/31 10:33:40;;;;;;;;;;;;;;;;;;5017064;28;4562;-63
2024/03/31 10:36:06;;;;;;;;;;;;;;;;;;5023483;28;5006;-75
2024/03/31 10:38:31;;;;;;;;;;;;;;;;;;5019135;28;3560;-64
2024/03/31 10:40:57;;;;;;;;;;;;;;;;;;5017408;28;4451;-62
2024/03/31 10:43:22;;;;;;;;;;;;;;;;;;5022844;28;4726;-60
2024/03/31 10:45:48;;;;;;;;;;;;;;;;;;5031920;28;5121;-63
2024/03/31 10:48:14;;;;;;;;;;;;;;;;;;5026584;28;4563;-62
2024/03/31 10:50:42;;;;;;;;;;;;;;;;;;5024160;28;4684;-61
2024/03/31 10:53:08;;;;;;;;;;;;;;;;;;5024340;28;3584;-70
2024/03/31 10:55:33;;;;;;;;;;;;;;;;;;5022982;28;4936;-72
2024/03/31 10:57:59;;;;;;;;;;;;;;;;;;5022020;28;4550;-71
2024/03/31 11:00:24;;;;;;;;;;;;;;;;;;5018094;28;5117;-69
2024/03/31 11:02:51;;;;;;;;;;;;;;;;;;5027531;28;5031;-70
2024/03/31 11:05:18;;;;;;;;;;;;;;;;;;5018113;28;3425;-70
2024/03/31 11:07:43;;;;;;;;;;;;;;;;;;5015112;28;4662;-73
2024/03/31 11:10:09;;;;;;;;;;;;;;;;;;5031192;28;4945;-74
2024/03/31 11:12:38;;;;;;;;;;;;;;;;;;5017520;28;4533;-77
2024/03/31 11:15:03;;;;;;;;;;;;;;;;;;5022650;28;4955;-69
2024/03/31 11:17:32;;;;;;;;;;;;;;;;;;5017593;28;3792;-70
2024/03/31 11:19:58;;;;;;;;;;;;;;;;;;5027520;28;4462;-75
2024/03/31 11:22:23;;;;;;;;;;;;;;;;;;5022616;28;4602;-73
2024/03/31 11:24:49;;;;;;;;;;;;;;;;;;5038535;28;4923;-76
2024/03/31 11:27:14;;;;;;;;;;;;;;;;;;5024275;28;4489;-72
2024/03/31 11:29:40;;;;;;;;;;;;;;;;;;5021105;28;5151;-70
2024/03/31 11:32:05;;;;;;;;;;;;;;;;;;5015218;28;3398;-75
2024/03/31 11:34:31;;;;;;;;;;;;;;;;;;5032921;28;5009;-74
2024/03/31 11:36:56;;;;;;;;;;;;;;;;;;5015797;28;4729;-74
2024/03/31 11:39:21;;;;;;;;;;;;;;;;;;5023645;28;4963;-70
2024/03/31 11:41:47;;;;;;;;;;;;;;;;;;5023814;28;5083;-74
2024/03/31 11:44:12;;;;;;;;;;;;;;;;;;5014907;28;3618;-72
2024/03/31 11:46:38;;;;;;;;;;;;;;;;;;5025292;28;4999;-72
2024/03/31 11:49:03;;;;;;;;;;;;;;;;;;5027650;28;5178;-71
2024/03/31 11:51:32;;;;;;;;;;;;;;;;;;5018967;28;4558;-70
2024/03/31 11:53:57;;;;;;;;;;;;;;;;;;5016086;28;4526;-68
2024/03/31 11:56:22;;;;;;;;;;;;;;;;;;5010743;28;3488;-68
2024/03/31 11:58:48;;;;;;;;;;;;;;;;;;5037364;28;4972;-64
2024/03/31 12:01:19;;;;;;;;;;;;;;;;;;5023493;28;4945;-70
2024/03/31 12:03:57;;;;;;;;;;;;;;;;;;5025971;28;5025;-60
2024/03/31 12:06:22;;;;;;;;;;;;;;;;;;5020981;28;5044;-65
2024/03/31 12:08:49;;;;;;;;;;;;;;;;;;5019297;28;5519;-61
2024/03/31 12:11:14;;;;;;;;;;;;;;;;;;5022795;28;3395;-60
2024/03/31 12:13:40;;;;;;;;;;;;;;;;;;5017800;28;4463;-61
2024/03/31 12:16:05;;;;;;;;;;;;;;;;;;5006137;28;4745;-60
2024/03/31 12:18:31;;;;;;;;;;;;;;;;;;5020967;28;4486;-60
2024/03/31 12:20:56;;;;;;;;;;;;;;;;;;5017240;28;5239;-60
2024/03/31 12:23:21;;;;;;;;;;;;;;;;;;5016226;28;3550;-59
2024/03/31 12:25:47;;;;;;;;;;;;;;;;;;5017364;28;5228;-60
2024/03/31 12:28:12;;;;;;;;;;;;;;;;;;5025572;28;4721;-60
2024/03/31 12:30:39;;;;;;;;;;;;;;;;;;5021166;28;5119;-58
2024/03/31 12:33:05;;;;;;;;;;;;;;;;;;5019267;28;5222;-61
2024/03/31 12:35:30;;;;;;;;;;;;;;;;;;5022471;28;3413;-62
2024/03/31 12:37:55;;;;;;;;;;;;;;;;;;5018924;28;5072;-65
2024/03/31 12:40:21;;;;;;;;;;;;;;;;;;5015808;28;5103;-58
2024/03/31 12:42:46;;;;;;;;;;;;;;;;;;5016417;28;5111;-59
2024/03/31 12:45:21;;;;;;;;;;;;;;;;;;5021038;28;5061;-62
2024/03/31 12:47:50;;;;;;;;;;;;;;;;;;5021546;28;4692;-61
2024/03/31 12:50:15;;;;;;;;;;;;;;;;;;5022383;28;3503;-61
2024/03/31 12:52:40;;;;;;;;;;;;;;;;;;5020224;28;4863;-61
2024/03/31 12:55:15;;;;;;;;;;;;;;;;;;5014865;28;4804;-58
2024/03/31 12:57:40;;;;;;;;;;;;;;;;;;5022403;28;5077;-66
2024/03/31 13:00:09;;;;;;;;;;;;;;;;;;5017380;28;5210;-61
2024/03/31 13:02:34;;;;;;;;;;;;;;;;;;5025136;28;1989;-64
2024/03/31 13:04:59;;;;;;;;;;;;;;;;;;5022299;28;5167;-63
2024/03/31 13:07:25;;;;;;;;;;;;;;;;;;5026288;28;4746;-65
2024/03/31 13:09:50;;;;;;;;;;;;;;;;;;5033390;28;5222;-62
2024/03/31 13:12:16;;;;;;;;;;;;;;;;;;5037673;28;5096;-61
2024/03/31 13:14:41;;;;;;;;;;;;;;;;;;5024815;28;5132;-64
2024/03/31 13:17:07;;;;;;;;;;;;;;;;;;5020305;28;3619;-62
2024/03/31 13:19:32;;;;;;;;;;;;;;;;;;5013347;28;4711;-60
2024/03/31 13:22:00;;;;;;;;;;;;;;;;;;5023966;28;4600;-61
2024/03/31 13:24:25;;;;;;;;;;;;;;;;;;5009038;28;4930;-67
2024/03/31 13:26:51;;;;;;;;;;;;;;;;;;5028466;28;4763;-70
2024/03/31 13:29:17;;;;;;;;;;;;;;;;;;5028513;28;3417;-68
2024/03/31 13:31:42;;;;;;;;;;;;;;;;;;5018375;28;4473;-65
2024/03/31 13:34:07;;;;;;;;;;;;;;;;;;5026875;28;5049;-63
2024/03/31 13:36:33;;;;;;;;;;;;;;;;;;5024784;28;4565;-66
2024/03/31 13:38:58;;;;;;;;;;;;;;;;;;5018837;28;5202;-63
2024/03/31 13:41:24;;;;;;;;;;;;;;;;;;5019648;28;3612;-62
2024/03/31 13:43:49;;;;;;;;;;;;;;;;;;5025392;28;4884;-62
2024/03/31 13:46:14;;;;;;;;;;;;;;;;;;5016026;28;5064;-60
2024/03/31 13:48:40;;;;;;;;;;;;;;;;;;5013643;28;4532;-61
2024/03/31 13:51:05;;;;;;;;;;;;;;;;;;5015193;28;4880;-60
2024/03/31 13:53:30;;;;;;;;;;;;;;;;;;5027871;28;1149;-61
2024/03/31 13:55:56;;;;;;;;;;;;;;;;;;5020704;28;5045;-64
2024/03/31 13:58:21;;;;;;;;;;;;;;;;;;5017211;28;5066;-66
2024/03/31 14:00:46;;;;;;;;;;;;;;;;;;5020301;28;4835;-62
2024/03/31 14:03:12;;;;;;;;;;;;;;;;;;5024320;28;4556;-64
2024/03/31 14:05:37;;;;;;;;;;;;;;;;;;5029746;28;3713;-62
2024/03/31 14:08:02;;;;;;;;;;;;;;;;;;5020306;28;4989;-63
2024/03/31 14:10:28;;;;;;;;;;;;;;;;;;5021616;28;4798;-62
2024/03/31 14:12:54;;;;;;;;;;;;;;;;;;5022007;28;4533;-63
2024/03/31 14:15:19;;;;;;;;;;;;;;;;;;5022152;28;5012;-64
2024/03/31 14:17:45;;;;;;;;;;;;;;;;;;5023729;28;4516;-63
2024/03/31 14:20:10;;;;;;;;;;;;;;;;;;5022878;28;3949;-63
2024/03/31 14:22:36;;;;;;;;;;;;;;;;;;5018896;28;5884;-62
2024/03/31 14:25:01;;;;;;;;;;;;;;;;;;5017068;28;5172;-62
2024/03/31 14:27:27;;;;;;;;;;;;;;;;;;5022732;28;5081;-64
2024/03/31 14:29:52;;;;;;;;;;;;;;;;;;5026446;28;5152;-62
2024/03/31 14:32:17;;;;;;;;;;;;;;;;;;5022312;28;3644;-61
2024/03/31 14:34:43;;;;;;;;;;;;;;;;;;5016975;28;4498;-61
2024/03/31 14:37:08;;;;;;;;;;;;;;;;;;5025987;28;5929;-60
2024/03/31 14:39:33;;;;;;;;;;;;;;;;;;5022080;28;5057;-57
2024/03/31 14:41:59;;;;;;;;;;;;;;;;;;5025565;28;5149;-58
2024/03/31 14:44:24;;;;;;;;;;;;;;;;;;5021662;28;3330;-57
2024/03/31 14:46:50;;;;;;;;;;;;;;;;;;5027106;28;5025;-56
2024/03/31 14:49:15;;;;;;;;;;;;;;;;;;5020699;28;5133;-57
2024/03/31 14:51:41;;;;;;;;;;;;;;;;;;5026292;28;4939;-56
2024/03/31 14:54:06;;;;;;;;;;;;;;;;;;5023746;28;5114;-56
2024/03/31 14:56:32;;;;;;;;;;;;;;;;;;5024366;28;3686;-56
2024/03/31 14:58:57;;;;;;;;;;;;;;;;;;5021921;28;5061;-56
2024/03/31 15:01:22;;;;;;;;;;;;;;;;;;5027438;28;5078;-57
2024/03/31 15:03:48;;;;;;;;;;;;;;;;;;5019470;28;4735;-57
2024/03/31 15:06:13;;;;;;;;;;;;;;;;;;5027876;28;4758;-57
2024/03/31 15:08:38;;;;;;;;;;;;;;;;;;5023606;28;3515;-66
2024/03/31 15:11:04;;;;;;;;;;;;;;;;;;5005516;28;4354;-67
2024/03/31 15:13:29;;;;;;;;;;;;;;;;;;5007312;28;4463;-64
2024/03/31 15:15:54;;;;;;;;;;;;;;;;;;5007672;28;5025;-66
2024/03/31 15:18:20;;;;;;;;;;;;;;;;;;5006764;28;5010;-63
2024/03/31 15:20:46;;;;;;;;;;;;;;;;;;5020295;28;5204;-65
2024/03/31 15:23:12;;;;;;;;;;;;;;;;;;5020128;28;3677;-69
2024/03/31 15:25:37;;;;;;;;;;;;;;;;;;5026618;28;5017;-67
2024/03/31 15:28:03;;;;;;;;;;;;;;;;;;5018865;28;4554;-67
2024/03/31 15:30:28;;;;;;;;;;;;;;;;;;5018331;28;5037;-67
2024/03/31 15:32:53;;;;;;;;;;;;;;;;;;5027897;28;4671;-65
2024/03/31 15:35:19;;;;;;;;;;;;;;;;;;5022767;28;1859;-63
2024/03/31 15:37:45;;;;;;;;;;;;;;;;;;5020485;28;4973;-62
2024/03/31 15:40:10;;;;;;;;;;;;;;;;;;5020240;28;5052;-67
2024/03/31 15:42:36;;;;;;;;;;;;;;;;;;5017322;28;5167;-64
2024/03/31 15:45:01;;;;;;;;;;;;;;;;;;5024167;28;4536;-63
2024/03/31 15:47:26;;;;;;;;;;;;;;;;;;5021993;28;2202;-68
2024/03/31 15:49:52;;;;;;;;;;;;;;;;;;5025170;28;4660;-67
2024/03/31 15:52:17;;;;;;;;;;;;;;;;;;5025576;28;5063;-65
2024/03/31 15:54:42;;;;;;;;;;;;;;;;;;5021730;28;5056;-65
2024/03/31 15:57:08;;;;;;;;;;;;;;;;;;5016759;28;5166;-67
2024/03/31 15:59:33;;;;;;;;;;;;;;;;;;5023900;28;3431;-67
2024/03/31 16:01:59;;;;;;;;;;;;;;;;;;5023213;28;5082;-67
2024/03/31 16:04:25;;;;;;;;;;;;;;;;;;5021524;28;5337;-66
2024/03/31 16:06:53;;;;;;;;;;;;;;;;;;5017501;28;5064;-63
2024/03/31 16:09:19;;;;;;;;;;;;;;;;;;5025966;28;5068;-68
2024/03/31 16:11:44;;;;;;;;;;;;;;;;;;5008571;28;4970;-63
2024/03/31 16:14:10;;;;;;;;;;;;;;;;;;5018863;28;3569;-63
2024/03/31 16:16:35;;;;;;;;;;;;;;;;;;5027202;28;4572;-66
2024/03/31 16:19:00;;;;;;;;;;;;;;;;;;5027416;28;5014;-63
2024/03/31 16:21:26;;;;;;;;;;;;;;;;;;5019640;28;5130;-66
2024/03/31 16:23:51;;;;;;;;;;;;;;;;;;5024949;28;4669;-64
2024/03/31 16:26:16;;;;;;;;;;;;;;;;;;5027523;28;1188;-63
2024/03/31 16:28:42;;;;;;;;;;;;;;;;;;5024003;28;5231;-76
2024/03/31 16:31:07;;;;;;;;;;;;;;;;;;5031632;28;5032;-68
2024/03/31 16:33:35;;;;;;;;;;;;;;;;;;5025850;28;4896;-64
2024/03/31 16:36:00;;;;;;;;;;;;;;;;;;5025031;28;5949;-62
2024/03/31 16:38:25;;;;;;;;;;;;;;;;;;5015051;28;3437;-67
2024/03/31 16:40:51;;;;;;;;;;;;;;;;;;5022189;28;4611;-63
2024/03/31 16:43:16;;;;;;;;;;;;;;;;;;5028958;28;4716;-64
2024/03/31 16:45:43;;;;;;;;;;;;;;;;;;5031092;28;4976;-64
2024/03/31 16:48:09;;;;;;;;;;;;;;;;;;5023411;28;4943;-63
2024/03/31 16:50:34;;;;;;;;;;;;;;;;;;5025672;28;3438;-62
2024/03/31 16:53:00;;;;;;;;;;;;;;;;;;5026548;28;4541;-67